createdAt,value
2019-04-16T00:01:23.796Z,74.93
2019-04-16T00:03:57.880Z,74.13
2019-04-16T00:06:49.071Z,74.25
2019-04-16T00:09:31.069Z,74.05
2019-04-16T00:12:18.193Z,75.18
2019-04-16T00:14:48.209Z,73.62
2019-04-16T00:17:17.317Z,74.54
2019-04-16T00:19:46.375Z,74.71
2019-04-16T00:22:24.443Z,75.00
2019-04-16T00:24:55.419Z,75.43
2019-04-16T00:27:28.239Z,75.29
2019-04-16T00:29:55.899Z,75.44
2019-04-16T00:32:29.945Z,75.76
2019-04-16T00:34:58.975Z,75.51
2019-04-16T00:37:28.039Z,75.24
2019-04-16T00:39:57.338Z,75.04
2019-04-16T00:42:26.401Z,74.98
2019-04-16T00:44:55.605Z,75.57
2019-04-16T00:47:24.738Z,74.70
2019-04-16T00:49:57.568Z,74.85
2019-04-16T00:52:24.521Z,75.08
2019-04-16T00:54:54.142Z,75.48
2019-04-16T00:57:23.573Z,75.46
2019-04-16T00:59:56.342Z,75.50
2019-04-16T01:02:23.473Z,76.10
2019-04-16T01:04:52.513Z,76.26
2019-04-16T01:07:21.568Z,76.42
2019-04-16T01:09:50.989Z,76.94
2019-04-16T01:12:20.009Z,76.82
2019-04-16T01:14:49.059Z,75.71
2019-04-16T01:17:18.347Z,76.20
2019-04-16T01:19:47.718Z,76.65
2019-04-16T01:22:17.045Z,76.94
2019-04-16T01:24:46.413Z,76.64
2019-04-16T01:27:15.951Z,76.79
2019-04-16T01:29:45.014Z,76.89
2019-04-16T01:32:42.469Z,76.78
2019-04-16T01:35:29.515Z,76.73
2019-04-16T01:38:20.954Z,76.14
2019-04-16T01:41:00.303Z,76.07
2019-04-16T01:43:29.639Z,76.98
2019-04-16T01:46:01.448Z,78.07
2019-04-16T01:48:30.749Z,77.81
2019-04-16T01:51:00.363Z,77.78
2019-04-16T01:53:30.076Z,77.67
2019-04-16T01:55:59.441Z,77.57
2019-04-16T01:58:28.478Z,78.04
2019-04-16T02:00:57.683Z,78.34
2019-04-16T02:03:26.727Z,78.27
2019-04-16T02:05:55.717Z,78.58
2019-04-16T02:08:24.757Z,78.07
2019-04-16T02:10:54.175Z,78.55
2019-04-16T02:13:23.213Z,78.64
2019-04-16T02:15:53.329Z,79.54
2019-04-16T02:18:23.293Z,80.04
2019-04-16T02:20:52.319Z,80.27
2019-04-16T02:23:21.696Z,79.95
2019-04-16T02:25:51.342Z,80.28
2019-04-16T02:28:21.690Z,80.21
2019-04-16T02:30:51.172Z,80.18
2019-04-16T02:33:20.271Z,78.70
2019-04-16T02:35:49.655Z,79.42
2019-04-16T02:38:18.698Z,79.97
2019-04-16T02:40:52.785Z,80.42
2019-04-16T02:43:19.174Z,80.75
2019-04-16T02:45:48.214Z,80.72
2019-04-16T02:48:17.465Z,80.76
2019-04-16T02:50:48.467Z,80.62
2019-04-16T02:53:40.996Z,80.55
2019-04-16T02:56:34.872Z,80.60
2019-04-16T02:59:11.823Z,80.35
2019-04-16T03:01:49.458Z,81.08
2019-04-16T03:04:21.615Z,80.39
2019-04-16T03:06:50.991Z,80.64
2019-04-16T03:09:19.980Z,81.08
2019-04-16T03:11:49.329Z,81.21
2019-04-16T03:14:18.395Z,80.51
2019-04-16T03:17:15.853Z,81.10
2019-04-16T03:19:50.918Z,80.84
2019-04-16T03:22:16.513Z,80.94
2019-04-16T03:24:45.552Z,81.26
2019-04-16T03:27:14.591Z,80.89
2019-04-16T03:29:43.586Z,80.99
2019-04-16T03:32:15.001Z,80.77
2019-04-16T03:34:43.732Z,80.97
2019-04-16T03:37:12.726Z,80.85
2019-04-16T03:39:44.687Z,80.59
2019-04-16T03:42:12.899Z,80.48
2019-04-16T03:44:41.925Z,80.46
2019-04-16T03:47:11.653Z,80.36
2019-04-16T03:49:40.659Z,81.17
2019-04-16T03:52:10.354Z,81.22
2019-04-16T03:54:39.385Z,81.03
2019-04-16T03:57:08.411Z,80.83
2019-04-16T03:59:39.994Z,80.84
2019-04-16T04:02:08.623Z,80.91
2019-04-16T04:04:37.639Z,81.09
2019-04-16T04:07:09.005Z,80.90
2019-04-16T04:09:37.413Z,80.82
2019-04-16T04:12:09.832Z,81.04
2019-04-16T04:14:38.144Z,81.29
2019-04-16T04:17:07.465Z,81.35
2019-04-16T04:19:36.626Z,81.40
2019-04-16T04:22:05.987Z,81.62
2019-04-16T04:24:35.087Z,81.93
2019-04-16T04:27:04.150Z,82.21
2019-04-16T04:29:33.224Z,82.71
2019-04-16T04:32:03.464Z,82.57
2019-04-16T04:34:33.733Z,82.68
2019-04-16T04:37:02.762Z,82.73
2019-04-16T04:39:32.511Z,83.15
2019-04-16T04:42:01.568Z,82.39
2019-04-16T04:44:30.579Z,81.94
2019-04-16T04:46:59.915Z,82.37
2019-04-16T04:49:30.517Z,82.75
2019-04-16T04:52:00.883Z,82.61
2019-04-16T04:54:29.900Z,82.70
2019-04-16T04:56:59.919Z,82.88
2019-04-16T04:59:29.216Z,82.73
2019-04-16T05:01:58.251Z,82.75
2019-04-16T05:04:44.882Z,82.46
2019-04-16T05:07:14.463Z,82.11
2019-04-16T05:09:43.397Z,82.48
2019-04-16T05:12:12.456Z,82.50
2019-04-16T05:14:57.559Z,82.27
2019-04-16T05:17:28.083Z,82.21
2019-04-16T05:19:57.101Z,82.36
2019-04-16T05:22:26.457Z,82.37
2019-04-16T05:25:00.864Z,82.32
2019-04-16T05:27:29.150Z,82.47
2019-04-16T05:29:57.016Z,81.99
2019-04-16T05:32:29.343Z,81.96
2019-04-16T05:34:56.779Z,81.81
2019-04-16T05:37:25.862Z,81.89
2019-04-16T05:39:58.579Z,81.94
2019-04-16T05:42:26.377Z,81.87
2019-04-16T05:44:55.474Z,81.43
2019-04-16T05:47:24.528Z,81.39
2019-04-16T05:49:54.398Z,81.38
2019-04-16T05:52:24.339Z,80.84
2019-04-16T05:55:22.006Z,80.97
2019-04-16T05:57:51.091Z,80.75
2019-04-16T06:00:30.306Z,79.82
2019-04-16T06:02:59.646Z,79.31
2019-04-16T06:05:30.360Z,79.12
2019-04-16T06:08:10.245Z,79.01
2019-04-16T06:10:39.511Z,77.70
2019-04-16T06:13:24.584Z,77.38
2019-04-16T06:16:00.891Z,77.49
2019-04-16T06:18:37.962Z,76.41
2019-04-16T06:21:29.262Z,76.53
2019-04-16T06:24:26.302Z,76.42
2019-04-16T06:27:02.139Z,75.73
2019-04-16T06:29:49.220Z,75.64
2019-04-16T06:32:37.516Z,74.63
2019-04-16T06:35:42.523Z,74.54
2019-04-16T06:38:15.487Z,74.01
2019-04-16T06:41:03.137Z,74.33
2019-04-16T06:43:31.130Z,73.44
2019-04-16T06:46:18.166Z,74.10
2019-04-16T06:49:06.496Z,73.17
2019-04-16T06:51:45.151Z,72.72
2019-04-16T06:54:45.721Z,72.89
2019-04-16T06:57:32.458Z,72.13
2019-04-16T07:00:19.781Z,71.49
2019-04-16T07:03:14.765Z,70.28
2019-04-16T07:06:03.941Z,69.52
2019-04-16T07:08:49.875Z,69.45
2019-04-16T07:11:16.688Z,69.50
2019-04-16T07:13:46.114Z,68.10
2019-04-16T07:16:15.144Z,67.24
2019-04-16T07:18:44.265Z,67.62
2019-04-16T07:21:14.560Z,66.68
2019-04-16T07:23:46.409Z,67.15
2019-04-16T07:26:16.273Z,65.58
2019-04-16T07:29:04.519Z,64.89
2019-04-16T07:31:44.212Z,64.71
2019-04-16T07:34:18.071Z,64.71
2019-04-16T07:36:56.627Z,63.37
2019-04-16T07:39:37.825Z,63.38
2019-04-16T07:42:26.476Z,61.91
2019-04-16T07:45:14.802Z,62.21
2019-04-16T07:48:08.955Z,60.98
2019-04-16T07:51:12.248Z,59.75
2019-04-16T07:54:04.390Z,60.04
2019-04-16T07:56:34.010Z,57.28
2019-04-16T07:59:03.076Z,57.26
2019-04-16T08:01:32.527Z,55.44
2019-04-16T08:04:03.102Z,57.57
2019-04-16T08:06:33.460Z,56.84
2019-04-16T08:09:02.544Z,55.44
2019-04-16T08:11:31.668Z,55.20
2019-04-16T08:14:01.076Z,56.70
2019-04-16T08:16:30.142Z,56.20
2019-04-16T08:18:59.174Z,54.57
2019-04-16T08:21:28.263Z,55.58
2019-04-16T08:24:06.657Z,55.03
2019-04-16T08:26:35.955Z,55.23
2019-04-16T08:29:05.076Z,54.37
2019-04-16T08:31:37.272Z,53.83
2019-04-16T08:34:06.246Z,54.50
2019-04-16T08:36:35.286Z,53.06
2019-04-16T08:39:07.557Z,53.84
2019-04-16T08:41:36.676Z,52.78
2019-04-16T08:44:05.822Z,51.46
2019-04-16T08:46:34.977Z,51.38
2019-04-16T08:49:04.414Z,52.70
2019-04-16T08:51:37.038Z,50.73
2019-04-16T08:54:04.280Z,47.23
2019-04-16T08:56:33.610Z,45.67
2019-04-16T08:59:02.640Z,45.39
2019-04-16T09:01:33.514Z,41.28
2019-04-16T09:04:03.139Z,41.29
2019-04-16T09:06:32.662Z,42.61
2019-04-16T09:09:13.417Z,39.65
2019-04-16T09:11:42.980Z,39.32
2019-04-16T09:14:12.340Z,40.58
2019-04-16T09:16:53.364Z,40.16
2019-04-16T09:19:22.560Z,41.70
2019-04-16T09:21:52.018Z,39.46
2019-04-16T09:24:28.259Z,42.74
2019-04-16T09:27:13.103Z,43.82
2019-04-16T09:30:16.933Z,45.47
2019-04-16T09:32:51.275Z,46.58
2019-04-16T09:35:23.154Z,46.31
2019-04-16T09:38:09.370Z,48.86
2019-04-16T09:40:58.633Z,52.33
2019-04-16T09:43:28.430Z,51.91
2019-04-16T09:46:09.654Z,51.81
2019-04-16T09:48:28.322Z,52.18
2019-04-16T09:50:57.358Z,52.51
2019-04-16T09:53:33.494Z,52.92
2019-04-16T09:55:59.484Z,50.61
2019-04-16T09:58:28.904Z,49.29
2019-04-16T10:01:06.499Z,47.04
2019-04-16T10:03:37.086Z,44.17
2019-04-16T10:06:06.832Z,43.39
2019-04-16T10:08:35.839Z,43.14
2019-04-16T10:11:06.168Z,42.43
2019-04-16T10:13:36.234Z,42.63
2019-04-16T10:16:06.242Z,41.94
2019-04-16T10:18:36.012Z,42.61
2019-04-16T10:21:05.216Z,42.65
2019-04-16T10:23:53.584Z,41.41
2019-04-16T10:26:22.683Z,43.41
2019-04-16T10:28:51.729Z,43.65
2019-04-16T10:31:21.520Z,45.59
2019-04-16T10:33:51.061Z,44.19
2019-04-16T10:36:20.122Z,42.60
2019-04-16T10:39:14.027Z,42.23
2019-04-16T10:41:50.793Z,42.06
2019-04-16T10:44:34.442Z,41.70
2019-04-16T10:47:22.279Z,42.63
2019-04-16T10:50:12.977Z,40.36
2019-04-16T10:53:03.115Z,39.26
2019-04-16T10:55:54.367Z,40.46
2019-04-16T10:58:40.889Z,41.13
2019-04-16T11:01:30.499Z,40.89
2019-04-16T11:04:11.574Z,40.54
2019-04-16T11:06:42.825Z,41.80
2019-04-16T11:09:12.149Z,41.12
2019-04-16T11:11:41.163Z,41.74
2019-04-16T11:14:10.334Z,43.47
2019-04-16T11:16:41.433Z,41.37
2019-04-16T11:19:10.774Z,42.00
2019-04-16T11:21:40.265Z,40.43
2019-04-16T11:24:09.671Z,40.62
2019-04-16T11:26:38.723Z,40.30
2019-04-16T11:29:08.107Z,39.06
2019-04-16T11:31:37.623Z,38.44
2019-04-16T11:34:07.792Z,40.33
2019-04-16T11:36:37.379Z,41.09
2019-04-16T11:39:08.016Z,39.32
2019-04-16T11:41:37.221Z,37.29
2019-04-16T11:44:15.168Z,39.09
2019-04-16T11:46:37.561Z,38.76
2019-04-16T11:49:06.885Z,39.29
2019-04-16T11:51:36.206Z,42.19
2019-04-16T11:54:05.252Z,40.57
2019-04-16T11:56:34.291Z,42.72
2019-04-16T11:59:03.351Z,41.78
2019-04-16T12:01:50.022Z,41.64
2019-04-16T12:04:36.767Z,41.93
2019-04-16T12:07:25.055Z,42.09
2019-04-16T12:10:31.254Z,42.04
2019-04-16T12:13:24.512Z,40.97
2019-04-16T12:16:11.200Z,42.16
2019-04-16T12:19:06.204Z,39.53
2019-04-16T12:22:06.351Z,38.58
2019-04-16T12:24:51.465Z,40.88
2019-04-16T12:27:48.258Z,38.76
2019-04-16T12:30:35.599Z,41.40
2019-04-16T12:33:26.387Z,43.23
2019-04-16T12:36:02.610Z,45.45
2019-04-16T12:38:46.032Z,46.20
2019-04-16T12:41:23.955Z,44.12
2019-04-16T12:44:04.836Z,45.33
2019-04-16T12:46:58.664Z,43.38
2019-04-16T12:49:46.438Z,45.88
2019-04-16T12:52:23.524Z,45.78
2019-04-16T12:55:14.511Z,45.18
2019-04-16T12:58:11.330Z,46.96
2019-04-16T13:00:59.827Z,46.13
2019-04-16T13:03:34.931Z,47.86
2019-04-16T13:06:26.901Z,48.16
2019-04-16T13:09:12.363Z,47.91
2019-04-16T13:12:09.438Z,48.56
2019-04-16T13:15:00.997Z,46.90
2019-04-16T13:17:50.815Z,49.46
2019-04-16T13:20:51.942Z,47.92
2019-04-16T13:23:39.175Z,48.51
2019-04-16T13:26:13.651Z,51.96
2019-04-16T13:28:42.958Z,50.70
2019-04-16T13:31:14.844Z,52.33
2019-04-16T13:33:46.197Z,50.15
2019-04-16T13:36:15.060Z,50.74
2019-04-16T13:38:48.702Z,50.57
2019-04-16T13:41:17.765Z,52.75
2019-04-16T13:43:50.766Z,51.48
2019-04-16T13:46:19.886Z,52.51
2019-04-16T13:48:53.860Z,51.86
2019-04-16T13:51:24.595Z,52.06
2019-04-16T13:54:15.984Z,53.18
2019-04-16T13:56:51.560Z,52.56
2019-04-16T13:59:38.002Z,52.17
2019-04-16T14:02:18.692Z,51.89
2019-04-16T14:04:45.830Z,52.55
2019-04-16T14:07:14.866Z,52.36
2019-04-16T14:09:44.382Z,53.38
2019-04-16T14:12:13.816Z,52.31
2019-04-16T14:14:43.083Z,51.72
2019-04-16T14:17:17.635Z,51.15
2019-04-16T14:19:45.100Z,52.53
2019-04-16T14:22:14.160Z,51.70
2019-04-16T14:24:43.506Z,51.04
2019-04-16T14:27:14.452Z,52.01
2019-04-16T14:29:43.624Z,52.14
2019-04-16T14:32:13.856Z,51.35
2019-04-16T14:35:07.906Z,52.61
2019-04-16T14:37:36.984Z,50.79
2019-04-16T14:40:25.789Z,51.05
2019-04-16T14:42:57.593Z,52.22
2019-04-16T14:45:56.804Z,52.46
2019-04-16T14:48:10.988Z,50.51
2019-04-16T14:50:40.005Z,52.32
2019-04-16T14:53:09.337Z,53.72
2019-04-16T14:56:00.482Z,51.48
2019-04-16T14:58:47.933Z,50.14
2019-04-16T15:01:35.938Z,50.51
2019-04-16T15:04:35.862Z,50.09
2019-04-16T15:07:23.974Z,50.96
2019-04-16T15:10:14.756Z,52.83
2019-04-16T15:12:54.295Z,51.47
2019-04-16T15:15:33.119Z,51.57
2019-04-16T15:18:21.092Z,52.13
2019-04-16T15:21:10.580Z,52.80
2019-04-16T15:24:01.239Z,53.08
2019-04-16T15:26:52.098Z,52.66
2019-04-16T15:29:24.173Z,51.74
2019-04-16T15:32:12.379Z,50.84
2019-04-16T15:34:44.217Z,51.59
2019-04-16T15:37:26.748Z,53.69
2019-04-16T15:39:59.599Z,54.69
2019-04-16T15:42:51.823Z,52.48
2019-04-16T15:45:29.959Z,52.56
2019-04-16T15:48:17.963Z,52.53
2019-04-16T15:51:07.683Z,51.77
2019-04-16T15:53:51.819Z,52.25
2019-04-16T15:56:45.944Z,52.43
2019-04-16T15:59:32.902Z,53.22
2019-04-16T16:02:24.125Z,52.65
2019-04-16T16:04:58.871Z,51.97
2019-04-16T16:07:30.800Z,53.80
2019-04-16T16:10:12.931Z,52.95
2019-04-16T16:12:40.336Z,52.56
2019-04-16T16:15:10.533Z,53.48
2019-04-16T16:17:39.595Z,53.92
2019-04-16T16:20:10.292Z,52.77
2019-04-16T16:22:39.531Z,52.79
2019-04-16T16:25:08.929Z,55.04
2019-04-16T16:27:41.750Z,55.61
2019-04-16T16:30:08.890Z,54.99
2019-04-16T16:32:37.985Z,55.72
2019-04-16T16:35:07.157Z,55.87
2019-04-16T16:37:37.495Z,55.49
2019-04-16T16:40:07.310Z,55.69
2019-04-16T16:42:36.957Z,56.16
2019-04-16T16:45:07.273Z,56.88
2019-04-16T16:47:39.828Z,57.98
2019-04-16T16:50:13.773Z,57.75
2019-04-16T16:52:53.532Z,58.32
2019-04-16T16:55:53.854Z,57.47
2019-04-16T16:58:41.859Z,57.15
2019-04-16T17:01:36.323Z,58.07
2019-04-16T17:04:23.035Z,59.28
2019-04-16T17:06:52.429Z,57.62
2019-04-16T17:09:27.203Z,60.35
2019-04-16T17:11:57.551Z,58.86
2019-04-16T17:14:27.092Z,57.66
2019-04-16T17:17:11.222Z,58.42
2019-04-16T17:19:27.616Z,58.86
2019-04-16T17:21:56.969Z,58.92
2019-04-16T17:24:25.975Z,59.12
2019-04-16T17:26:55.352Z,59.33
2019-04-16T17:29:24.439Z,57.15
2019-04-16T17:31:53.794Z,56.92
2019-04-16T17:34:22.918Z,58.21
2019-04-16T17:36:52.003Z,56.68
2019-04-16T17:39:47.012Z,58.69
2019-04-16T17:42:16.954Z,57.07
2019-04-16T17:45:07.792Z,56.68
2019-04-16T17:48:10.767Z,57.60
2019-04-16T17:51:01.414Z,57.41
2019-04-16T17:53:35.139Z,57.34
2019-04-16T17:56:29.635Z,57.50
2019-04-16T17:59:04.984Z,58.22
2019-04-16T18:02:05.322Z,58.00
2019-04-16T18:04:51.885Z,58.34
2019-04-16T18:07:38.650Z,58.98
2019-04-16T18:10:26.885Z,59.16
2019-04-16T18:12:59.712Z,59.50
2019-04-16T18:16:02.853Z,59.33
2019-04-16T18:18:51.415Z,60.31
2019-04-16T18:21:42.264Z,59.53
2019-04-16T18:24:29.354Z,59.09
2019-04-16T18:27:29.575Z,59.56
2019-04-16T18:30:16.595Z,59.82
2019-04-16T18:32:58.998Z,60.90
2019-04-16T18:35:52.860Z,60.72
2019-04-16T18:38:41.586Z,61.42
2019-04-16T18:41:20.430Z,61.15
2019-04-16T18:44:11.162Z,62.52
2019-04-16T18:46:47.958Z,62.55
2019-04-16T18:49:19.411Z,63.62
2019-04-16T18:51:48.469Z,64.17
2019-04-16T18:54:17.600Z,64.36
2019-04-16T18:56:46.637Z,64.78
2019-04-16T18:59:15.710Z,64.63
2019-04-16T19:01:46.313Z,64.70
2019-04-16T19:04:15.620Z,64.59
2019-04-16T19:06:44.692Z,64.85
2019-04-16T19:09:14.683Z,64.89
2019-04-16T19:11:43.806Z,64.49
2019-04-16T19:14:13.868Z,64.76
2019-04-16T19:16:43.405Z,64.82
2019-04-16T19:19:12.731Z,65.13
2019-04-16T19:21:42.689Z,65.33
2019-04-16T19:24:12.446Z,65.73
2019-04-16T19:26:41.563Z,66.13
2019-04-16T19:29:14.388Z,66.27
2019-04-16T19:31:41.451Z,66.62
2019-04-16T19:34:10.746Z,67.32
2019-04-16T19:36:39.840Z,67.94
2019-04-16T19:39:13.729Z,68.16
2019-04-16T19:41:41.328Z,68.46
2019-04-16T19:44:10.668Z,69.17
2019-04-16T19:46:39.683Z,70.46
2019-04-16T19:49:08.764Z,70.93
2019-04-16T19:51:41.129Z,70.67
2019-04-16T19:54:08.750Z,70.77
2019-04-16T19:56:37.820Z,70.85
2019-04-16T19:59:06.891Z,71.34
2019-04-16T20:01:35.955Z,71.33
2019-04-16T20:04:09.233Z,72.30
2019-04-16T20:06:36.475Z,72.37
2019-04-16T20:09:07.445Z,73.71
2019-04-16T20:11:37.365Z,74.46
2019-04-16T20:14:06.453Z,74.82
2019-04-16T20:16:35.487Z,75.38
2019-04-16T20:19:04.536Z,76.33
2019-04-16T20:21:37.517Z,77.33
2019-04-16T20:24:05.031Z,78.05
2019-04-16T20:26:34.383Z,78.69
2019-04-16T20:29:03.564Z,78.68
2019-04-16T20:31:32.574Z,78.52
2019-04-16T20:34:01.749Z,79.06
2019-04-16T20:36:30.782Z,79.35
2019-04-16T20:39:00.266Z,79.70
2019-04-16T20:41:29.265Z,80.03
2019-04-16T20:43:58.591Z,79.96
2019-04-16T20:46:27.613Z,80.33
2019-04-16T20:49:08.248Z,80.48
2019-04-16T20:51:27.415Z,80.31
2019-04-16T20:53:56.630Z,81.08
2019-04-16T20:56:25.749Z,80.25
2019-04-16T20:58:55.245Z,80.39
2019-04-16T21:01:33.851Z,80.32
2019-04-16T21:04:04.640Z,80.77
2019-04-16T21:06:29.104Z,80.96
2019-04-16T21:08:58.712Z,80.88
2019-04-16T21:11:28.200Z,81.37
2019-04-16T21:13:57.267Z,81.01
2019-04-16T21:16:26.598Z,80.69
2019-04-16T21:18:55.701Z,80.52
2019-04-16T21:21:24.746Z,80.52
2019-04-16T21:23:53.825Z,80.84
2019-04-16T21:26:22.849Z,80.46
2019-04-16T21:29:05.541Z,81.00
2019-04-16T21:31:42.969Z,80.87
2019-04-16T21:34:46.347Z,81.62
2019-04-16T21:37:46.968Z,80.73
2019-04-16T21:40:16.421Z,81.30
2019-04-16T21:42:45.814Z,82.04
2019-04-16T21:45:16.527Z,82.06
2019-04-16T21:47:46.183Z,82.06
2019-04-16T21:50:16.296Z,81.75
2019-04-16T21:52:46.470Z,82.08
2019-04-16T21:55:15.496Z,82.08
2019-04-16T21:57:46.045Z,82.27
2019-04-16T22:03:32.530Z,83.23
2019-04-16T22:06:02.164Z,83.23
2019-04-16T22:08:31.901Z,81.72
2019-04-16T22:11:01.329Z,80.95
2019-04-16T22:13:30.395Z,80.48
2019-04-16T22:16:01.893Z,80.04
2019-04-16T22:18:31.324Z,79.57
2019-04-16T22:21:00.763Z,79.58
2019-04-16T22:23:29.795Z,77.23
2019-04-16T22:26:01.461Z,76.37
2019-04-16T22:28:29.952Z,76.52
2019-04-16T22:30:58.966Z,76.33
2019-04-16T22:33:28.014Z,75.08
2019-04-16T22:35:57.255Z,76.10
2019-04-16T22:38:29.892Z,76.00
2019-04-16T22:41:14.957Z,76.56
2019-04-16T22:44:06.992Z,76.45
2019-04-16T22:46:42.255Z,76.70
2019-04-16T22:49:11.651Z,76.41
2019-04-16T22:51:43.205Z,75.43
2019-04-16T22:54:11.816Z,76.22
2019-04-16T22:56:47.914Z,75.99
2019-04-16T22:59:16.961Z,76.39
2019-04-16T23:01:46.612Z,75.88
2019-04-16T23:04:15.654Z,76.49
2019-04-16T23:06:44.687Z,76.80
2019-04-16T23:09:17.020Z,77.52
2019-04-16T23:11:44.826Z,77.49
2019-04-16T23:14:14.193Z,78.03
2019-04-16T23:16:43.233Z,78.77
2019-04-16T23:19:12.264Z,77.92
2019-04-16T23:21:42.548Z,77.48
2019-04-16T23:24:12.072Z,78.31
2019-04-16T23:26:41.084Z,78.21
2019-04-16T23:29:12.419Z,79.20
2019-04-16T23:31:41.266Z,78.74
2019-04-16T23:34:10.299Z,78.84
2019-04-16T23:36:39.637Z,79.88
2019-04-16T23:39:08.687Z,80.97
2019-04-16T23:41:37.740Z,79.76
2019-04-16T23:44:40.957Z,79.98
2019-04-16T23:47:44.624Z,80.62
2019-04-16T23:50:45.175Z,80.03
2019-04-16T23:53:31.548Z,81.09
2019-04-16T23:56:12.551Z,80.61
2019-04-16T23:59:01.341Z,80.22
